<?xml version="1.0" encoding="UTF-8" standalone="no" ?>
<gpx xmlns="http://www.topografix.com/GPX/1/1" xmlns:xsi="http://www.w3.org/2001/XMLSchema-instance" xsi:schemaLocation="http://www.topografix.com/GPX/1/1 http://www.topografix.com/GPX/1/1/gpx.xsd" version="1.1" creator="VisuGPX - https://www.visugpx.com">
  <metadata>
    <name>randonnée des chateaux</name>
    <desc><![CDATA[randonnée des chateaux le wasigenstein la suite et fin du parcours,
avec les enfants]]></desc>
  </metadata>
  <wpt lat="49.04206" lon="7.7124">
    <ele>381</ele>
  </wpt>
  <wpt lat="49.04203" lon="7.7123">
    <ele>392</ele>
    <name><![CDATA[WP 070311bis]]></name>
  </wpt>
  <wpt lat="49.03186" lon="7.71022">
    <ele>229</ele>
  </wpt>
  <trk>
    <name><![CDATA[randonnée des chateaux_1]]></name>
    <trkseg>
      <trkpt lat="49.04206" lon="7.7124">
        <ele>381</ele>
        <time>2011-03-07T15:43:41Z</time>
      </trkpt>
      <trkpt lat="49.04202" lon="7.71226">
        <ele>398</ele>
        <time>2011-03-07T15:43:51Z</time>
      </trkpt>
      <trkpt lat="49.04203" lon="7.7123">
        <ele>392</ele>
        <time>2011-03-07T15:43:46Z</time>
      </trkpt>
      <trkpt lat="49.04196" lon="7.7122">
        <ele>398</ele>
        <time>2011-03-07T15:44:51Z</time>
      </trkpt>
      <trkpt lat="49.04202" lon="7.71231">
        <ele>391</ele>
        <time>2011-03-07T15:45:03Z</time>
      </trkpt>
      <trkpt lat="49.04208" lon="7.71241">
        <ele>382</ele>
        <time>2011-03-07T15:45:25Z</time>
      </trkpt>
      <trkpt lat="49.04202" lon="7.71254">
        <ele>392</ele>
        <time>2011-03-07T15:45:58Z</time>
      </trkpt>
      <trkpt lat="49.04205" lon="7.71238">
        <ele>387</ele>
        <time>2011-03-07T15:46:21Z</time>
      </trkpt>
      <trkpt lat="49.04206" lon="7.71223">
        <ele>387</ele>
        <time>2011-03-07T15:46:30Z</time>
      </trkpt>
      <trkpt lat="49.04211" lon="7.71212">
        <ele>387</ele>
        <time>2011-03-07T15:46:42Z</time>
      </trkpt>
      <trkpt lat="49.04213" lon="7.71196">
        <ele>387</ele>
        <time>2011-03-07T15:46:52Z</time>
      </trkpt>
      <trkpt lat="49.04215" lon="7.7118">
        <ele>387</ele>
        <time>2011-03-07T15:47:03Z</time>
      </trkpt>
      <trkpt lat="49.04221" lon="7.7117">
        <ele>387</ele>
        <time>2011-03-07T15:47:15Z</time>
      </trkpt>
      <trkpt lat="49.04224" lon="7.71156">
        <ele>387</ele>
        <time>2011-03-07T15:47:23Z</time>
      </trkpt>
      <trkpt lat="49.04228" lon="7.71143">
        <ele>387</ele>
        <time>2011-03-07T15:47:32Z</time>
      </trkpt>
      <trkpt lat="49.04234" lon="7.7113">
        <ele>387</ele>
        <time>2011-03-07T15:47:45Z</time>
      </trkpt>
      <trkpt lat="49.0424" lon="7.71118">
        <ele>387</ele>
        <time>2011-03-07T15:48:01Z</time>
      </trkpt>
      <trkpt lat="49.04243" lon="7.71104">
        <ele>395</ele>
        <time>2011-03-07T15:48:25Z</time>
      </trkpt>
      <trkpt lat="49.04248" lon="7.71091">
        <ele>403</ele>
        <time>2011-03-07T15:48:34Z</time>
      </trkpt>
      <trkpt lat="49.04257" lon="7.71088">
        <ele>403</ele>
        <time>2011-03-07T15:48:41Z</time>
      </trkpt>
      <trkpt lat="49.04266" lon="7.71095">
        <ele>386</ele>
        <time>2011-03-07T15:48:53Z</time>
      </trkpt>
      <trkpt lat="49.04273" lon="7.71085">
        <ele>386</ele>
        <time>2011-03-07T15:49:03Z</time>
      </trkpt>
      <trkpt lat="49.04273" lon="7.71071">
        <ele>396</ele>
        <time>2011-03-07T15:49:09Z</time>
      </trkpt>
      <trkpt lat="49.04279" lon="7.71059">
        <ele>396</ele>
        <time>2011-03-07T15:49:18Z</time>
      </trkpt>
      <trkpt lat="49.04288" lon="7.71053">
        <ele>396</ele>
        <time>2011-03-07T15:49:27Z</time>
      </trkpt>
      <trkpt lat="49.04292" lon="7.71038">
        <ele>404</ele>
        <time>2011-03-07T15:49:39Z</time>
      </trkpt>
      <trkpt lat="49.043" lon="7.71034">
        <ele>398</ele>
        <time>2011-03-07T15:49:54Z</time>
      </trkpt>
      <trkpt lat="49.0431" lon="7.71027">
        <ele>398</ele>
        <time>2011-03-07T15:50:05Z</time>
      </trkpt>
      <trkpt lat="49.04319" lon="7.71022">
        <ele>398</ele>
        <time>2011-03-07T15:50:22Z</time>
      </trkpt>
      <trkpt lat="49.04326" lon="7.71011">
        <ele>398</ele>
        <time>2011-03-07T15:50:31Z</time>
      </trkpt>
      <trkpt lat="49.04329" lon="7.70995">
        <ele>411</ele>
        <time>2011-03-07T15:50:41Z</time>
      </trkpt>
      <trkpt lat="49.04334" lon="7.70982">
        <ele>411</ele>
        <time>2011-03-07T15:50:49Z</time>
      </trkpt>
      <trkpt lat="49.04342" lon="7.70973">
        <ele>411</ele>
        <time>2011-03-07T15:50:57Z</time>
      </trkpt>
      <trkpt lat="49.0435" lon="7.70965">
        <ele>411</ele>
        <time>2011-03-07T15:51:07Z</time>
      </trkpt>
      <trkpt lat="49.04358" lon="7.70957">
        <ele>411</ele>
        <time>2011-03-07T15:51:15Z</time>
      </trkpt>
      <trkpt lat="49.04364" lon="7.70944">
        <ele>411</ele>
        <time>2011-03-07T15:51:23Z</time>
      </trkpt>
      <trkpt lat="49.04371" lon="7.70935">
        <ele>411</ele>
        <time>2011-03-07T15:51:31Z</time>
      </trkpt>
      <trkpt lat="49.0438" lon="7.7093">
        <ele>411</ele>
        <time>2011-03-07T15:51:37Z</time>
      </trkpt>
      <trkpt lat="49.04385" lon="7.70941">
        <ele>399</ele>
        <time>2011-03-07T15:52:14Z</time>
      </trkpt>
      <trkpt lat="49.0439" lon="7.70928">
        <ele>417</ele>
        <time>2011-03-07T15:53:55Z</time>
      </trkpt>
      <trkpt lat="49.04385" lon="7.70915">
        <ele>406</ele>
        <time>2011-03-07T15:54:04Z</time>
      </trkpt>
      <trkpt lat="49.04386" lon="7.709">
        <ele>406</ele>
        <time>2011-03-07T15:54:11Z</time>
      </trkpt>
      <trkpt lat="49.04385" lon="7.70886">
        <ele>406</ele>
        <time>2011-03-07T15:54:17Z</time>
      </trkpt>
      <trkpt lat="49.04378" lon="7.70876">
        <ele>406</ele>
        <time>2011-03-07T15:54:25Z</time>
      </trkpt>
      <trkpt lat="49.04369" lon="7.70871">
        <ele>406</ele>
        <time>2011-03-07T15:54:32Z</time>
      </trkpt>
      <trkpt lat="49.04362" lon="7.70861">
        <ele>406</ele>
        <time>2011-03-07T15:54:38Z</time>
      </trkpt>
      <trkpt lat="49.04372" lon="7.70855">
        <ele>388</ele>
        <time>2011-03-07T15:55:01Z</time>
      </trkpt>
      <trkpt lat="49.04365" lon="7.70845">
        <ele>396</ele>
        <time>2011-03-07T15:55:27Z</time>
      </trkpt>
      <trkpt lat="49.04362" lon="7.7086">
        <ele>396</ele>
        <time>2011-03-07T15:55:40Z</time>
      </trkpt>
      <trkpt lat="49.04372" lon="7.70855">
        <ele>396</ele>
        <time>2011-03-07T15:56:00Z</time>
      </trkpt>
      <trkpt lat="49.04378" lon="7.70843">
        <ele>396</ele>
        <time>2011-03-07T15:56:07Z</time>
      </trkpt>
      <trkpt lat="49.04383" lon="7.7083">
        <ele>403</ele>
        <time>2011-03-07T15:56:18Z</time>
      </trkpt>
      <trkpt lat="49.04393" lon="7.70823">
        <ele>403</ele>
        <time>2011-03-07T15:56:29Z</time>
      </trkpt>
      <trkpt lat="49.044" lon="7.70813">
        <ele>403</ele>
        <time>2011-03-07T15:56:37Z</time>
      </trkpt>
      <trkpt lat="49.04407" lon="7.70803">
        <ele>403</ele>
        <time>2011-03-07T15:56:45Z</time>
      </trkpt>
      <trkpt lat="49.04414" lon="7.70792">
        <ele>403</ele>
        <time>2011-03-07T15:56:53Z</time>
      </trkpt>
      <trkpt lat="49.04423" lon="7.70783">
        <ele>403</ele>
        <time>2011-03-07T15:57:04Z</time>
      </trkpt>
      <trkpt lat="49.04433" lon="7.70782">
        <ele>403</ele>
        <time>2011-03-07T15:57:10Z</time>
      </trkpt>
      <trkpt lat="49.04442" lon="7.70775">
        <ele>397</ele>
        <time>2011-03-07T15:57:19Z</time>
      </trkpt>
      <trkpt lat="49.04451" lon="7.70771">
        <ele>397</ele>
        <time>2011-03-07T15:57:24Z</time>
      </trkpt>
      <trkpt lat="49.04459" lon="7.70764">
        <ele>405</ele>
        <time>2011-03-07T15:57:36Z</time>
      </trkpt>
      <trkpt lat="49.04465" lon="7.70752">
        <ele>405</ele>
        <time>2011-03-07T15:57:48Z</time>
      </trkpt>
      <trkpt lat="49.04472" lon="7.70743">
        <ele>405</ele>
        <time>2011-03-07T15:57:55Z</time>
      </trkpt>
      <trkpt lat="49.04481" lon="7.70735">
        <ele>397</ele>
        <time>2011-03-07T15:58:03Z</time>
      </trkpt>
      <trkpt lat="49.04488" lon="7.70727">
        <ele>391</ele>
        <time>2011-03-07T15:58:09Z</time>
      </trkpt>
      <trkpt lat="49.04497" lon="7.7072">
        <ele>391</ele>
        <time>2011-03-07T15:58:16Z</time>
      </trkpt>
      <trkpt lat="49.04505" lon="7.70711">
        <ele>391</ele>
        <time>2011-03-07T15:58:24Z</time>
      </trkpt>
      <trkpt lat="49.04512" lon="7.70702">
        <ele>399</ele>
        <time>2011-03-07T15:58:32Z</time>
      </trkpt>
      <trkpt lat="49.04521" lon="7.70698">
        <ele>399</ele>
        <time>2011-03-07T15:58:37Z</time>
      </trkpt>
      <trkpt lat="49.04528" lon="7.70689">
        <ele>392</ele>
        <time>2011-03-07T15:58:48Z</time>
      </trkpt>
      <trkpt lat="49.04533" lon="7.70676">
        <ele>376</ele>
        <time>2011-03-07T15:59:03Z</time>
      </trkpt>
      <trkpt lat="49.04533" lon="7.70661">
        <ele>376</ele>
        <time>2011-03-07T15:59:08Z</time>
      </trkpt>
      <trkpt lat="49.04539" lon="7.70649">
        <ele>385</ele>
        <time>2011-03-07T15:59:17Z</time>
      </trkpt>
      <trkpt lat="49.04544" lon="7.70636">
        <ele>385</ele>
        <time>2011-03-07T15:59:25Z</time>
      </trkpt>
      <trkpt lat="49.04553" lon="7.70631">
        <ele>385</ele>
        <time>2011-03-07T15:59:31Z</time>
      </trkpt>
      <trkpt lat="49.04559" lon="7.70619">
        <ele>392</ele>
        <time>2011-03-07T15:59:40Z</time>
      </trkpt>
      <trkpt lat="49.04567" lon="7.70611">
        <ele>392</ele>
        <time>2011-03-07T15:59:48Z</time>
      </trkpt>
      <trkpt lat="49.04573" lon="7.706">
        <ele>392</ele>
        <time>2011-03-07T15:59:56Z</time>
      </trkpt>
      <trkpt lat="49.04577" lon="7.70587">
        <ele>380</ele>
        <time>2011-03-07T16:00:05Z</time>
      </trkpt>
      <trkpt lat="49.04577" lon="7.70572">
        <ele>380</ele>
        <time>2011-03-07T16:00:14Z</time>
      </trkpt>
      <trkpt lat="49.04585" lon="7.70562">
        <ele>386</ele>
        <time>2011-03-07T16:00:21Z</time>
      </trkpt>
      <trkpt lat="49.04594" lon="7.70561">
        <ele>386</ele>
        <time>2011-03-07T16:00:26Z</time>
      </trkpt>
      <trkpt lat="49.04597" lon="7.70547">
        <ele>374</ele>
        <time>2011-03-07T16:00:55Z</time>
      </trkpt>
      <trkpt lat="49.04598" lon="7.70566">
        <ele>383</ele>
        <time>2011-03-07T16:01:04Z</time>
      </trkpt>
      <trkpt lat="49.046" lon="7.70549">
        <ele>403</ele>
        <time>2011-03-07T16:01:19Z</time>
      </trkpt>
      <trkpt lat="49.04611" lon="7.70541">
        <ele>393</ele>
        <time>2011-03-07T16:01:24Z</time>
      </trkpt>
      <trkpt lat="49.04621" lon="7.70539">
        <ele>386</ele>
        <time>2011-03-07T16:01:31Z</time>
      </trkpt>
      <trkpt lat="49.04626" lon="7.70525">
        <ele>379</ele>
        <time>2011-03-07T16:01:44Z</time>
      </trkpt>
      <trkpt lat="49.04636" lon="7.70518">
        <ele>357</ele>
        <time>2011-03-07T16:02:11Z</time>
      </trkpt>
      <trkpt lat="49.04645" lon="7.70505">
        <ele>357</ele>
        <time>2011-03-07T16:02:18Z</time>
      </trkpt>
      <trkpt lat="49.04652" lon="7.70493">
        <ele>357</ele>
        <time>2011-03-07T16:02:23Z</time>
      </trkpt>
      <trkpt lat="49.04658" lon="7.70481">
        <ele>376</ele>
        <time>2011-03-07T16:02:29Z</time>
      </trkpt>
      <trkpt lat="49.04664" lon="7.70471">
        <ele>376</ele>
        <time>2011-03-07T16:02:42Z</time>
      </trkpt>
      <trkpt lat="49.04668" lon="7.70458">
        <ele>376</ele>
        <time>2011-03-07T16:02:51Z</time>
      </trkpt>
      <trkpt lat="49.04677" lon="7.7045">
        <ele>370</ele>
        <time>2011-03-07T16:03:00Z</time>
      </trkpt>
      <trkpt lat="49.04686" lon="7.70454">
        <ele>370</ele>
        <time>2011-03-07T16:03:12Z</time>
      </trkpt>
      <trkpt lat="49.04682" lon="7.70441">
        <ele>370</ele>
        <time>2011-03-07T16:03:36Z</time>
      </trkpt>
      <trkpt lat="49.0469" lon="7.70435">
        <ele>370</ele>
        <time>2011-03-07T16:03:44Z</time>
      </trkpt>
      <trkpt lat="49.04696" lon="7.70422">
        <ele>358</ele>
        <time>2011-03-07T16:04:02Z</time>
      </trkpt>
      <trkpt lat="49.04699" lon="7.70409">
        <ele>358</ele>
        <time>2011-03-07T16:04:11Z</time>
      </trkpt>
      <trkpt lat="49.04703" lon="7.70395">
        <ele>358</ele>
        <time>2011-03-07T16:04:19Z</time>
      </trkpt>
      <trkpt lat="49.04709" lon="7.70384">
        <ele>358</ele>
        <time>2011-03-07T16:04:33Z</time>
      </trkpt>
      <trkpt lat="49.04709" lon="7.70369">
        <ele>368</ele>
        <time>2011-03-07T16:04:41Z</time>
      </trkpt>
      <trkpt lat="49.04713" lon="7.70357">
        <ele>368</ele>
        <time>2011-03-07T16:04:49Z</time>
      </trkpt>
      <trkpt lat="49.04713" lon="7.70341">
        <ele>357</ele>
        <time>2011-03-07T16:05:10Z</time>
      </trkpt>
      <trkpt lat="49.04714" lon="7.70326">
        <ele>357</ele>
        <time>2011-03-07T16:05:18Z</time>
      </trkpt>
      <trkpt lat="49.04722" lon="7.70316">
        <ele>357</ele>
        <time>2011-03-07T16:05:29Z</time>
      </trkpt>
      <trkpt lat="49.04732" lon="7.70314">
        <ele>357</ele>
        <time>2011-03-07T16:05:40Z</time>
      </trkpt>
      <trkpt lat="49.0474" lon="7.70305">
        <ele>351</ele>
        <time>2011-03-07T16:05:47Z</time>
      </trkpt>
      <trkpt lat="49.04748" lon="7.70296">
        <ele>351</ele>
        <time>2011-03-07T16:05:54Z</time>
      </trkpt>
      <trkpt lat="49.04756" lon="7.70287">
        <ele>351</ele>
        <time>2011-03-07T16:06:10Z</time>
      </trkpt>
      <trkpt lat="49.04756" lon="7.70272">
        <ele>351</ele>
        <time>2011-03-07T16:06:21Z</time>
      </trkpt>
      <trkpt lat="49.04755" lon="7.70258">
        <ele>351</ele>
        <time>2011-03-07T16:06:30Z</time>
      </trkpt>
      <trkpt lat="49.0476" lon="7.70245">
        <ele>351</ele>
        <time>2011-03-07T16:06:38Z</time>
      </trkpt>
      <trkpt lat="49.04771" lon="7.70244">
        <ele>351</ele>
        <time>2011-03-07T16:06:45Z</time>
      </trkpt>
      <trkpt lat="49.04781" lon="7.70241">
        <ele>343</ele>
        <time>2011-03-07T16:06:53Z</time>
      </trkpt>
      <trkpt lat="49.0479" lon="7.70245">
        <ele>343</ele>
        <time>2011-03-07T16:07:01Z</time>
      </trkpt>
      <trkpt lat="49.0479" lon="7.7026">
        <ele>349</ele>
        <time>2011-03-07T16:07:36Z</time>
      </trkpt>
      <trkpt lat="49.04782" lon="7.7025">
        <ele>361</ele>
        <time>2011-03-07T16:07:50Z</time>
      </trkpt>
      <trkpt lat="49.04784" lon="7.70235">
        <ele>378</ele>
        <time>2011-03-07T16:08:02Z</time>
      </trkpt>
      <trkpt lat="49.04781" lon="7.70249">
        <ele>368</ele>
        <time>2011-03-07T16:08:17Z</time>
      </trkpt>
      <trkpt lat="49.04791" lon="7.70256">
        <ele>357</ele>
        <time>2011-03-07T16:08:29Z</time>
      </trkpt>
      <trkpt lat="49.04782" lon="7.70254">
        <ele>357</ele>
        <time>2011-03-07T16:08:36Z</time>
      </trkpt>
      <trkpt lat="49.04775" lon="7.70244">
        <ele>357</ele>
        <time>2011-03-07T16:08:47Z</time>
      </trkpt>
      <trkpt lat="49.04776" lon="7.70229">
        <ele>357</ele>
        <time>2011-03-07T16:08:58Z</time>
      </trkpt>
      <trkpt lat="49.04782" lon="7.70219">
        <ele>357</ele>
        <time>2011-03-07T16:09:18Z</time>
      </trkpt>
      <trkpt lat="49.04783" lon="7.70204">
        <ele>348</ele>
        <time>2011-03-07T16:09:34Z</time>
      </trkpt>
      <trkpt lat="49.04775" lon="7.70193">
        <ele>359</ele>
        <time>2011-03-07T16:10:15Z</time>
      </trkpt>
      <trkpt lat="49.04771" lon="7.7018">
        <ele>373</ele>
        <time>2011-03-07T16:10:27Z</time>
      </trkpt>
      <trkpt lat="49.04769" lon="7.70194">
        <ele>364</ele>
        <time>2011-03-07T16:10:37Z</time>
      </trkpt>
      <trkpt lat="49.04765" lon="7.70181">
        <ele>375</ele>
        <time>2011-03-07T16:10:58Z</time>
      </trkpt>
      <trkpt lat="49.04763" lon="7.70168">
        <ele>364</ele>
        <time>2011-03-07T16:11:34Z</time>
      </trkpt>
      <trkpt lat="49.0477" lon="7.70159">
        <ele>372</ele>
        <time>2011-03-07T16:12:04Z</time>
      </trkpt>
      <trkpt lat="49.04779" lon="7.70156">
        <ele>372</ele>
        <time>2011-03-07T16:12:19Z</time>
      </trkpt>
      <trkpt lat="49.04785" lon="7.70169">
        <ele>354</ele>
        <time>2011-03-07T16:12:24Z</time>
      </trkpt>
      <trkpt lat="49.04783" lon="7.70194">
        <ele>354</ele>
        <time>2011-03-07T16:12:39Z</time>
      </trkpt>
      <trkpt lat="49.04791" lon="7.70184">
        <ele>354</ele>
        <time>2011-03-07T16:12:51Z</time>
      </trkpt>
      <trkpt lat="49.04794" lon="7.70171">
        <ele>370</ele>
        <time>2011-03-07T16:13:11Z</time>
      </trkpt>
      <trkpt lat="49.048" lon="7.70159">
        <ele>370</ele>
        <time>2011-03-07T16:13:15Z</time>
      </trkpt>
      <trkpt lat="49.04794" lon="7.7017">
        <ele>362</ele>
        <time>2011-03-07T16:13:37Z</time>
      </trkpt>
      <trkpt lat="49.04797" lon="7.70183">
        <ele>362</ele>
        <time>2011-03-07T16:16:35Z</time>
      </trkpt>
      <trkpt lat="49.04796" lon="7.70198">
        <ele>362</ele>
        <time>2011-03-07T16:17:10Z</time>
      </trkpt>
      <trkpt lat="49.04797" lon="7.70212">
        <ele>362</ele>
        <time>2011-03-07T16:17:29Z</time>
      </trkpt>
      <trkpt lat="49.04792" lon="7.702">
        <ele>368</ele>
        <time>2011-03-07T16:21:39Z</time>
      </trkpt>
      <trkpt lat="49.04785" lon="7.70185">
        <ele>368</ele>
        <time>2011-03-07T16:23:50Z</time>
      </trkpt>
      <trkpt lat="49.04789" lon="7.70167">
        <ele>363</ele>
        <time>2011-03-07T16:24:02Z</time>
      </trkpt>
      <trkpt lat="49.04794" lon="7.70152">
        <ele>363</ele>
        <time>2011-03-07T16:24:06Z</time>
      </trkpt>
      <trkpt lat="49.04803" lon="7.70171">
        <ele>368</ele>
        <time>2011-03-07T16:24:10Z</time>
      </trkpt>
      <trkpt lat="49.04793" lon="7.70181">
        <ele>368</ele>
        <time>2011-03-07T16:24:12Z</time>
      </trkpt>
      <trkpt lat="49.04791" lon="7.70164">
        <ele>368</ele>
        <time>2011-03-07T16:24:37Z</time>
      </trkpt>
      <trkpt lat="49.04773" lon="7.70165">
        <ele>368</ele>
        <time>2011-03-07T16:24:47Z</time>
      </trkpt>
      <trkpt lat="49.04766" lon="7.70152">
        <ele>356</ele>
        <time>2011-03-07T16:24:57Z</time>
      </trkpt>
      <trkpt lat="49.04777" lon="7.70151">
        <ele>356</ele>
        <time>2011-03-07T16:25:07Z</time>
      </trkpt>
      <trkpt lat="49.04772" lon="7.70166">
        <ele>346</ele>
        <time>2011-03-07T16:25:32Z</time>
      </trkpt>
      <trkpt lat="49.04776" lon="7.7018">
        <ele>326</ele>
        <time>2011-03-07T16:25:42Z</time>
      </trkpt>
      <trkpt lat="49.04772" lon="7.70166">
        <ele>343</ele>
        <time>2011-03-07T16:25:53Z</time>
      </trkpt>
      <trkpt lat="49.04767" lon="7.70154">
        <ele>360</ele>
        <time>2011-03-07T16:26:13Z</time>
      </trkpt>
      <trkpt lat="49.04777" lon="7.70158">
        <ele>360</ele>
        <time>2011-03-07T16:26:48Z</time>
      </trkpt>
      <trkpt lat="49.04772" lon="7.70145">
        <ele>344</ele>
        <time>2011-03-07T16:27:29Z</time>
      </trkpt>
      <trkpt lat="49.0477" lon="7.70131">
        <ele>344</ele>
        <time>2011-03-07T16:27:39Z</time>
      </trkpt>
      <trkpt lat="49.04767" lon="7.70116">
        <ele>344</ele>
        <time>2011-03-07T16:27:49Z</time>
      </trkpt>
      <trkpt lat="49.04764" lon="7.70093">
        <ele>356</ele>
        <time>2011-03-07T16:28:02Z</time>
      </trkpt>
      <trkpt lat="49.04773" lon="7.70099">
        <ele>356</ele>
        <time>2011-03-07T16:28:05Z</time>
      </trkpt>
      <trkpt lat="49.04782" lon="7.70105">
        <ele>356</ele>
        <time>2011-03-07T16:28:19Z</time>
      </trkpt>
      <trkpt lat="49.04791" lon="7.70112">
        <ele>356</ele>
        <time>2011-03-07T16:28:49Z</time>
      </trkpt>
      <trkpt lat="49.04789" lon="7.70127">
        <ele>349</ele>
        <time>2011-03-07T16:29:00Z</time>
      </trkpt>
      <trkpt lat="49.04781" lon="7.70138">
        <ele>342</ele>
        <time>2011-03-07T16:29:15Z</time>
      </trkpt>
      <trkpt lat="49.04795" lon="7.70135">
        <ele>333</ele>
        <time>2011-03-07T16:29:48Z</time>
      </trkpt>
      <trkpt lat="49.04805" lon="7.70137">
        <ele>333</ele>
        <time>2011-03-07T16:29:51Z</time>
      </trkpt>
      <trkpt lat="49.04798" lon="7.70128">
        <ele>333</ele>
        <time>2011-03-07T16:30:09Z</time>
      </trkpt>
      <trkpt lat="49.04789" lon="7.70131">
        <ele>358</ele>
        <time>2011-03-07T16:30:18Z</time>
      </trkpt>
      <trkpt lat="49.04788" lon="7.70146">
        <ele>369</ele>
        <time>2011-03-07T16:30:50Z</time>
      </trkpt>
      <trkpt lat="49.04794" lon="7.70131">
        <ele>361</ele>
        <time>2011-03-07T16:31:46Z</time>
      </trkpt>
      <trkpt lat="49.04798" lon="7.70156">
        <ele>361</ele>
        <time>2011-03-07T16:31:50Z</time>
      </trkpt>
      <trkpt lat="49.04786" lon="7.70146">
        <ele>355</ele>
        <time>2011-03-07T16:31:51Z</time>
      </trkpt>
      <trkpt lat="49.04784" lon="7.70128">
        <ele>355</ele>
        <time>2011-03-07T16:31:52Z</time>
      </trkpt>
      <trkpt lat="49.04792" lon="7.70137">
        <ele>365</ele>
        <time>2011-03-07T16:32:05Z</time>
      </trkpt>
      <trkpt lat="49.04789" lon="7.70152">
        <ele>365</ele>
        <time>2011-03-07T16:34:16Z</time>
      </trkpt>
      <trkpt lat="49.04789" lon="7.70166">
        <ele>377</ele>
        <time>2011-03-07T16:34:28Z</time>
      </trkpt>
      <trkpt lat="49.04785" lon="7.70152">
        <ele>391</ele>
        <time>2011-03-07T16:34:38Z</time>
      </trkpt>
      <trkpt lat="49.04776" lon="7.70146">
        <ele>397</ele>
        <time>2011-03-07T16:34:49Z</time>
      </trkpt>
      <trkpt lat="49.04784" lon="7.70157">
        <ele>389</ele>
        <time>2011-03-07T16:35:04Z</time>
      </trkpt>
      <trkpt lat="49.04781" lon="7.70171">
        <ele>389</ele>
        <time>2011-03-07T16:35:10Z</time>
      </trkpt>
      <trkpt lat="49.04784" lon="7.70157">
        <ele>369</ele>
        <time>2011-03-07T16:35:30Z</time>
      </trkpt>
      <trkpt lat="49.04789" lon="7.70146">
        <ele>352</ele>
        <time>2011-03-07T16:36:44Z</time>
      </trkpt>
      <trkpt lat="49.04785" lon="7.70132">
        <ele>361</ele>
        <time>2011-03-07T16:39:35Z</time>
      </trkpt>
      <trkpt lat="49.04791" lon="7.70146">
        <ele>344</ele>
        <time>2011-03-07T16:40:08Z</time>
      </trkpt>
      <trkpt lat="49.04784" lon="7.70135">
        <ele>361</ele>
        <time>2011-03-07T16:41:12Z</time>
      </trkpt>
      <trkpt lat="49.04794" lon="7.70138">
        <ele>354</ele>
        <time>2011-03-07T16:42:06Z</time>
      </trkpt>
      <trkpt lat="49.04784" lon="7.70115">
        <ele>347</ele>
        <time>2011-03-07T16:42:32Z</time>
      </trkpt>
      <trkpt lat="49.04788" lon="7.70132">
        <ele>339</ele>
        <time>2011-03-07T16:43:13Z</time>
      </trkpt>
      <trkpt lat="49.04781" lon="7.70142">
        <ele>339</ele>
        <time>2011-03-07T16:43:19Z</time>
      </trkpt>
      <trkpt lat="49.04772" lon="7.70142">
        <ele>332</ele>
        <time>2011-03-07T16:43:24Z</time>
      </trkpt>
      <trkpt lat="49.04769" lon="7.70128">
        <ele>337</ele>
        <time>2011-03-07T16:43:35Z</time>
      </trkpt>
      <trkpt lat="49.04766" lon="7.70112">
        <ele>337</ele>
        <time>2011-03-07T16:43:48Z</time>
      </trkpt>
      <trkpt lat="49.04775" lon="7.70118">
        <ele>337</ele>
        <time>2011-03-07T16:44:21Z</time>
      </trkpt>
      <trkpt lat="49.04768" lon="7.70108">
        <ele>351</ele>
        <time>2011-03-07T16:45:31Z</time>
      </trkpt>
      <trkpt lat="49.04775" lon="7.70119">
        <ele>342</ele>
        <time>2011-03-07T16:45:43Z</time>
      </trkpt>
      <trkpt lat="49.04779" lon="7.70133">
        <ele>342</ele>
        <time>2011-03-07T16:45:47Z</time>
      </trkpt>
      <trkpt lat="49.04773" lon="7.70145">
        <ele>333</ele>
        <time>2011-03-07T16:45:56Z</time>
      </trkpt>
      <trkpt lat="49.04773" lon="7.70159">
        <ele>333</ele>
        <time>2011-03-07T16:46:02Z</time>
      </trkpt>
      <trkpt lat="49.04773" lon="7.70174">
        <ele>333</ele>
        <time>2011-03-07T16:46:09Z</time>
      </trkpt>
      <trkpt lat="49.04772" lon="7.70189">
        <ele>323</ele>
        <time>2011-03-07T16:46:15Z</time>
      </trkpt>
      <trkpt lat="49.04764" lon="7.70198">
        <ele>323</ele>
        <time>2011-03-07T16:46:23Z</time>
      </trkpt>
      <trkpt lat="49.04757" lon="7.70208">
        <ele>323</ele>
        <time>2011-03-07T16:46:30Z</time>
      </trkpt>
      <trkpt lat="49.04755" lon="7.70222">
        <ele>316</ele>
        <time>2011-03-07T16:46:38Z</time>
      </trkpt>
      <trkpt lat="49.04749" lon="7.70234">
        <ele>310</ele>
        <time>2011-03-07T16:46:48Z</time>
      </trkpt>
      <trkpt lat="49.0474" lon="7.70243">
        <ele>323</ele>
        <time>2011-03-07T16:46:55Z</time>
      </trkpt>
      <trkpt lat="49.04731" lon="7.70247">
        <ele>313</ele>
        <time>2011-03-07T16:47:06Z</time>
      </trkpt>
      <trkpt lat="49.04722" lon="7.70252">
        <ele>313</ele>
        <time>2011-03-07T16:47:16Z</time>
      </trkpt>
      <trkpt lat="49.04712" lon="7.70252">
        <ele>313</ele>
        <time>2011-03-07T16:47:25Z</time>
      </trkpt>
      <trkpt lat="49.04703" lon="7.70256">
        <ele>313</ele>
        <time>2011-03-07T16:47:32Z</time>
      </trkpt>
      <trkpt lat="49.04694" lon="7.7026">
        <ele>313</ele>
        <time>2011-03-07T16:47:41Z</time>
      </trkpt>
      <trkpt lat="49.04686" lon="7.70264">
        <ele>303</ele>
        <time>2011-03-07T16:47:50Z</time>
      </trkpt>
      <trkpt lat="49.04678" lon="7.70255">
        <ele>303</ele>
        <time>2011-03-07T16:47:57Z</time>
      </trkpt>
      <trkpt lat="49.04668" lon="7.70256">
        <ele>303</ele>
        <time>2011-03-07T16:48:05Z</time>
      </trkpt>
      <trkpt lat="49.04659" lon="7.70253">
        <ele>303</ele>
        <time>2011-03-07T16:48:15Z</time>
      </trkpt>
      <trkpt lat="49.04659" lon="7.70239">
        <ele>303</ele>
        <time>2011-03-07T16:48:50Z</time>
      </trkpt>
      <trkpt lat="49.04662" lon="7.70225">
        <ele>296</ele>
        <time>2011-03-07T16:48:57Z</time>
      </trkpt>
      <trkpt lat="49.04664" lon="7.7021">
        <ele>296</ele>
        <time>2011-03-07T16:49:02Z</time>
      </trkpt>
      <trkpt lat="49.04667" lon="7.70197">
        <ele>296</ele>
        <time>2011-03-07T16:49:09Z</time>
      </trkpt>
      <trkpt lat="49.04666" lon="7.70181">
        <ele>296</ele>
        <time>2011-03-07T16:49:16Z</time>
      </trkpt>
      <trkpt lat="49.04664" lon="7.70166">
        <ele>290</ele>
        <time>2011-03-07T16:49:23Z</time>
      </trkpt>
      <trkpt lat="49.04664" lon="7.7015">
        <ele>290</ele>
        <time>2011-03-07T16:49:31Z</time>
      </trkpt>
      <trkpt lat="49.04667" lon="7.70137">
        <ele>290</ele>
        <time>2011-03-07T16:49:37Z</time>
      </trkpt>
      <trkpt lat="49.04671" lon="7.70121">
        <ele>290</ele>
        <time>2011-03-07T16:49:44Z</time>
      </trkpt>
      <trkpt lat="49.04675" lon="7.70107">
        <ele>290</ele>
        <time>2011-03-07T16:49:50Z</time>
      </trkpt>
      <trkpt lat="49.04675" lon="7.70092">
        <ele>290</ele>
        <time>2011-03-07T16:49:56Z</time>
      </trkpt>
      <trkpt lat="49.04678" lon="7.70077">
        <ele>290</ele>
        <time>2011-03-07T16:50:02Z</time>
      </trkpt>
      <trkpt lat="49.0468" lon="7.70062">
        <ele>284</ele>
        <time>2011-03-07T16:50:11Z</time>
      </trkpt>
      <trkpt lat="49.04685" lon="7.70049">
        <ele>284</ele>
        <time>2011-03-07T16:50:19Z</time>
      </trkpt>
      <trkpt lat="49.04687" lon="7.70034">
        <ele>284</ele>
        <time>2011-03-07T16:50:26Z</time>
      </trkpt>
      <trkpt lat="49.04692" lon="7.70022">
        <ele>273</ele>
        <time>2011-03-07T16:50:35Z</time>
      </trkpt>
      <trkpt lat="49.04693" lon="7.70008">
        <ele>273</ele>
        <time>2011-03-07T16:50:41Z</time>
      </trkpt>
      <trkpt lat="49.04694" lon="7.69993">
        <ele>273</ele>
        <time>2011-03-07T16:50:46Z</time>
      </trkpt>
      <trkpt lat="49.047" lon="7.69979">
        <ele>279</ele>
        <time>2011-03-07T16:50:52Z</time>
      </trkpt>
      <trkpt lat="49.04697" lon="7.69965">
        <ele>269</ele>
        <time>2011-03-07T16:50:59Z</time>
      </trkpt>
      <trkpt lat="49.04697" lon="7.6995">
        <ele>269</ele>
        <time>2011-03-07T16:51:07Z</time>
      </trkpt>
      <trkpt lat="49.04691" lon="7.69934">
        <ele>269</ele>
        <time>2011-03-07T16:51:17Z</time>
      </trkpt>
      <trkpt lat="49.04683" lon="7.69926">
        <ele>276</ele>
        <time>2011-03-07T16:51:28Z</time>
      </trkpt>
      <trkpt lat="49.04677" lon="7.69914">
        <ele>276</ele>
        <time>2011-03-07T16:51:50Z</time>
      </trkpt>
      <trkpt lat="49.04667" lon="7.69907">
        <ele>266</ele>
        <time>2011-03-07T16:51:59Z</time>
      </trkpt>
      <trkpt lat="49.04657" lon="7.69907">
        <ele>260</ele>
        <time>2011-03-07T16:52:07Z</time>
      </trkpt>
      <trkpt lat="49.04648" lon="7.69901">
        <ele>260</ele>
        <time>2011-03-07T16:52:14Z</time>
      </trkpt>
      <trkpt lat="49.04637" lon="7.69901">
        <ele>255</ele>
        <time>2011-03-07T16:52:21Z</time>
      </trkpt>
      <trkpt lat="49.04628" lon="7.69895">
        <ele>255</ele>
        <time>2011-03-07T16:52:28Z</time>
      </trkpt>
      <trkpt lat="49.04618" lon="7.69893">
        <ele>255</ele>
        <time>2011-03-07T16:52:35Z</time>
      </trkpt>
      <trkpt lat="49.0461" lon="7.69887">
        <ele>255</ele>
        <time>2011-03-07T16:52:43Z</time>
      </trkpt>
      <trkpt lat="49.046" lon="7.69885">
        <ele>255</ele>
        <time>2011-03-07T16:52:49Z</time>
      </trkpt>
      <trkpt lat="49.0459" lon="7.69881">
        <ele>255</ele>
        <time>2011-03-07T16:52:55Z</time>
      </trkpt>
      <trkpt lat="49.0458" lon="7.69877">
        <ele>255</ele>
        <time>2011-03-07T16:53:02Z</time>
      </trkpt>
      <trkpt lat="49.04567" lon="7.69875">
        <ele>255</ele>
        <time>2011-03-07T16:53:10Z</time>
      </trkpt>
      <trkpt lat="49.04558" lon="7.6988">
        <ele>255</ele>
        <time>2011-03-07T16:53:15Z</time>
      </trkpt>
      <trkpt lat="49.04548" lon="7.69881">
        <ele>255</ele>
        <time>2011-03-07T16:53:21Z</time>
      </trkpt>
      <trkpt lat="49.04539" lon="7.69877">
        <ele>262</ele>
        <time>2011-03-07T16:53:29Z</time>
      </trkpt>
      <trkpt lat="49.0453" lon="7.69875">
        <ele>262</ele>
        <time>2011-03-07T16:53:39Z</time>
      </trkpt>
      <trkpt lat="49.04519" lon="7.69873">
        <ele>262</ele>
        <time>2011-03-07T16:53:45Z</time>
      </trkpt>
      <trkpt lat="49.04508" lon="7.69871">
        <ele>262</ele>
        <time>2011-03-07T16:53:52Z</time>
      </trkpt>
      <trkpt lat="49.04498" lon="7.69871">
        <ele>253</ele>
        <time>2011-03-07T16:53:59Z</time>
      </trkpt>
      <trkpt lat="49.04488" lon="7.69873">
        <ele>253</ele>
        <time>2011-03-07T16:54:04Z</time>
      </trkpt>
      <trkpt lat="49.04479" lon="7.69879">
        <ele>253</ele>
        <time>2011-03-07T16:54:11Z</time>
      </trkpt>
      <trkpt lat="49.04469" lon="7.69881">
        <ele>253</ele>
        <time>2011-03-07T16:54:19Z</time>
      </trkpt>
      <trkpt lat="49.04458" lon="7.69886">
        <ele>253</ele>
        <time>2011-03-07T16:54:26Z</time>
      </trkpt>
      <trkpt lat="49.04448" lon="7.69888">
        <ele>253</ele>
        <time>2011-03-07T16:54:34Z</time>
      </trkpt>
      <trkpt lat="49.04439" lon="7.69885">
        <ele>253</ele>
        <time>2011-03-07T16:54:39Z</time>
      </trkpt>
      <trkpt lat="49.04429" lon="7.69887">
        <ele>266</ele>
        <time>2011-03-07T16:54:45Z</time>
      </trkpt>
      <trkpt lat="49.04418" lon="7.69886">
        <ele>266</ele>
        <time>2011-03-07T16:54:52Z</time>
      </trkpt>
      <trkpt lat="49.04407" lon="7.69889">
        <ele>266</ele>
        <time>2011-03-07T16:54:59Z</time>
      </trkpt>
      <trkpt lat="49.04397" lon="7.6989">
        <ele>276</ele>
        <time>2011-03-07T16:55:04Z</time>
      </trkpt>
      <trkpt lat="49.04389" lon="7.69884">
        <ele>276</ele>
        <time>2011-03-07T16:55:11Z</time>
      </trkpt>
      <trkpt lat="49.0438" lon="7.69881">
        <ele>276</ele>
        <time>2011-03-07T16:55:18Z</time>
      </trkpt>
      <trkpt lat="49.04371" lon="7.69873">
        <ele>270</ele>
        <time>2011-03-07T16:55:25Z</time>
      </trkpt>
      <trkpt lat="49.04362" lon="7.69865">
        <ele>270</ele>
        <time>2011-03-07T16:55:34Z</time>
      </trkpt>
      <trkpt lat="49.04354" lon="7.69859">
        <ele>262</ele>
        <time>2011-03-07T16:55:40Z</time>
      </trkpt>
      <trkpt lat="49.04344" lon="7.69855">
        <ele>249</ele>
        <time>2011-03-07T16:55:47Z</time>
      </trkpt>
      <trkpt lat="49.04334" lon="7.6985">
        <ele>249</ele>
        <time>2011-03-07T16:55:53Z</time>
      </trkpt>
      <trkpt lat="49.04326" lon="7.69843">
        <ele>249</ele>
        <time>2011-03-07T16:56:00Z</time>
      </trkpt>
      <trkpt lat="49.04316" lon="7.69841">
        <ele>249</ele>
        <time>2011-03-07T16:56:07Z</time>
      </trkpt>
      <trkpt lat="49.04308" lon="7.69836">
        <ele>256</ele>
        <time>2011-03-07T16:56:14Z</time>
      </trkpt>
      <trkpt lat="49.04298" lon="7.69836">
        <ele>256</ele>
        <time>2011-03-07T16:56:21Z</time>
      </trkpt>
      <trkpt lat="49.0429" lon="7.69828">
        <ele>256</ele>
        <time>2011-03-07T16:56:27Z</time>
      </trkpt>
      <trkpt lat="49.04279" lon="7.69827">
        <ele>256</ele>
        <time>2011-03-07T16:56:35Z</time>
      </trkpt>
      <trkpt lat="49.04269" lon="7.69825">
        <ele>256</ele>
        <time>2011-03-07T16:56:41Z</time>
      </trkpt>
      <trkpt lat="49.0426" lon="7.69821">
        <ele>263</ele>
        <time>2011-03-07T16:56:49Z</time>
      </trkpt>
      <trkpt lat="49.0425" lon="7.6982">
        <ele>263</ele>
        <time>2011-03-07T16:56:56Z</time>
      </trkpt>
      <trkpt lat="49.04241" lon="7.69816">
        <ele>263</ele>
        <time>2011-03-07T16:57:01Z</time>
      </trkpt>
      <trkpt lat="49.04231" lon="7.69813">
        <ele>263</ele>
        <time>2011-03-07T16:57:06Z</time>
      </trkpt>
      <trkpt lat="49.04221" lon="7.6981">
        <ele>249</ele>
        <time>2011-03-07T16:57:14Z</time>
      </trkpt>
      <trkpt lat="49.04211" lon="7.69809">
        <ele>249</ele>
        <time>2011-03-07T16:57:22Z</time>
      </trkpt>
      <trkpt lat="49.04201" lon="7.69807">
        <ele>249</ele>
        <time>2011-03-07T16:57:32Z</time>
      </trkpt>
      <trkpt lat="49.04191" lon="7.69805">
        <ele>258</ele>
        <time>2011-03-07T16:57:40Z</time>
      </trkpt>
      <trkpt lat="49.04179" lon="7.69806">
        <ele>268</ele>
        <time>2011-03-07T16:57:47Z</time>
      </trkpt>
      <trkpt lat="49.04169" lon="7.69804">
        <ele>263</ele>
        <time>2011-03-07T16:57:54Z</time>
      </trkpt>
      <trkpt lat="49.04159" lon="7.69801">
        <ele>257</ele>
        <time>2011-03-07T16:58:02Z</time>
      </trkpt>
      <trkpt lat="49.0415" lon="7.69801">
        <ele>257</ele>
        <time>2011-03-07T16:58:08Z</time>
      </trkpt>
      <trkpt lat="49.0414" lon="7.69802">
        <ele>257</ele>
        <time>2011-03-07T16:58:14Z</time>
      </trkpt>
      <trkpt lat="49.04131" lon="7.69801">
        <ele>257</ele>
        <time>2011-03-07T16:58:19Z</time>
      </trkpt>
      <trkpt lat="49.04123" lon="7.69794">
        <ele>257</ele>
        <time>2011-03-07T16:58:27Z</time>
      </trkpt>
      <trkpt lat="49.04112" lon="7.69792">
        <ele>263</ele>
        <time>2011-03-07T16:58:35Z</time>
      </trkpt>
      <trkpt lat="49.04102" lon="7.69786">
        <ele>263</ele>
        <time>2011-03-07T16:58:40Z</time>
      </trkpt>
      <trkpt lat="49.04093" lon="7.69781">
        <ele>258</ele>
        <time>2011-03-07T16:58:48Z</time>
      </trkpt>
      <trkpt lat="49.04083" lon="7.69779">
        <ele>247</ele>
        <time>2011-03-07T16:58:56Z</time>
      </trkpt>
      <trkpt lat="49.04072" lon="7.69778">
        <ele>247</ele>
        <time>2011-03-07T16:59:05Z</time>
      </trkpt>
      <trkpt lat="49.04061" lon="7.69783">
        <ele>247</ele>
        <time>2011-03-07T16:59:10Z</time>
      </trkpt>
      <trkpt lat="49.04052" lon="7.69783">
        <ele>247</ele>
        <time>2011-03-07T16:59:20Z</time>
      </trkpt>
      <trkpt lat="49.04042" lon="7.69779">
        <ele>247</ele>
        <time>2011-03-07T16:59:27Z</time>
      </trkpt>
      <trkpt lat="49.04033" lon="7.69775">
        <ele>254</ele>
        <time>2011-03-07T16:59:33Z</time>
      </trkpt>
      <trkpt lat="49.04024" lon="7.69771">
        <ele>254</ele>
        <time>2011-03-07T16:59:40Z</time>
      </trkpt>
      <trkpt lat="49.04015" lon="7.69775">
        <ele>247</ele>
        <time>2011-03-07T16:59:47Z</time>
      </trkpt>
      <trkpt lat="49.04006" lon="7.69777">
        <ele>247</ele>
        <time>2011-03-07T16:59:54Z</time>
      </trkpt>
      <trkpt lat="49.03995" lon="7.69777">
        <ele>247</ele>
        <time>2011-03-07T17:00:03Z</time>
      </trkpt>
      <trkpt lat="49.03987" lon="7.69768">
        <ele>256</ele>
        <time>2011-03-07T17:00:10Z</time>
      </trkpt>
      <trkpt lat="49.03979" lon="7.69763">
        <ele>293</ele>
        <time>2011-03-07T17:01:01Z</time>
      </trkpt>
      <trkpt lat="49.03986" lon="7.69752">
        <ele>293</ele>
        <time>2011-03-07T17:01:22Z</time>
      </trkpt>
      <trkpt lat="49.03977" lon="7.69743">
        <ele>279</ele>
        <time>2011-03-07T17:01:33Z</time>
      </trkpt>
      <trkpt lat="49.03969" lon="7.69739">
        <ele>274</ele>
        <time>2011-03-07T17:01:43Z</time>
      </trkpt>
      <trkpt lat="49.03956" lon="7.69736">
        <ele>260</ele>
        <time>2011-03-07T17:01:56Z</time>
      </trkpt>
      <trkpt lat="49.03946" lon="7.69733">
        <ele>260</ele>
        <time>2011-03-07T17:01:59Z</time>
      </trkpt>
      <trkpt lat="49.03937" lon="7.69735">
        <ele>260</ele>
        <time>2011-03-07T17:02:13Z</time>
      </trkpt>
      <trkpt lat="49.03928" lon="7.69728">
        <ele>260</ele>
        <time>2011-03-07T17:02:21Z</time>
      </trkpt>
      <trkpt lat="49.03919" lon="7.6973">
        <ele>260</ele>
        <time>2011-03-07T17:02:27Z</time>
      </trkpt>
      <trkpt lat="49.0391" lon="7.69734">
        <ele>244</ele>
        <time>2011-03-07T17:02:33Z</time>
      </trkpt>
      <trkpt lat="49.03901" lon="7.6973">
        <ele>234</ele>
        <time>2011-03-07T17:02:41Z</time>
      </trkpt>
      <trkpt lat="49.03891" lon="7.69727">
        <ele>234</ele>
        <time>2011-03-07T17:02:49Z</time>
      </trkpt>
      <trkpt lat="49.03881" lon="7.69725">
        <ele>234</ele>
        <time>2011-03-07T17:02:57Z</time>
      </trkpt>
      <trkpt lat="49.03871" lon="7.6972">
        <ele>246</ele>
        <time>2011-03-07T17:03:09Z</time>
      </trkpt>
      <trkpt lat="49.03861" lon="7.69716">
        <ele>246</ele>
        <time>2011-03-07T17:03:15Z</time>
      </trkpt>
      <trkpt lat="49.03852" lon="7.69708">
        <ele>246</ele>
        <time>2011-03-07T17:03:24Z</time>
      </trkpt>
      <trkpt lat="49.03843" lon="7.69701">
        <ele>246</ele>
        <time>2011-03-07T17:03:32Z</time>
      </trkpt>
      <trkpt lat="49.03835" lon="7.69694">
        <ele>251</ele>
        <time>2011-03-07T17:03:39Z</time>
      </trkpt>
      <trkpt lat="49.03828" lon="7.69684">
        <ele>251</ele>
        <time>2011-03-07T17:03:45Z</time>
      </trkpt>
      <trkpt lat="49.03821" lon="7.69675">
        <ele>257</ele>
        <time>2011-03-07T17:03:54Z</time>
      </trkpt>
      <trkpt lat="49.03816" lon="7.69662">
        <ele>257</ele>
        <time>2011-03-07T17:04:02Z</time>
      </trkpt>
      <trkpt lat="49.0381" lon="7.69651">
        <ele>257</ele>
        <time>2011-03-07T17:04:10Z</time>
      </trkpt>
      <trkpt lat="49.03803" lon="7.69642">
        <ele>257</ele>
        <time>2011-03-07T17:04:18Z</time>
      </trkpt>
      <trkpt lat="49.03797" lon="7.69631">
        <ele>257</ele>
        <time>2011-03-07T17:04:25Z</time>
      </trkpt>
      <trkpt lat="49.03796" lon="7.69616">
        <ele>268</ele>
        <time>2011-03-07T17:04:48Z</time>
      </trkpt>
      <trkpt lat="49.03789" lon="7.69607">
        <ele>268</ele>
        <time>2011-03-07T17:04:57Z</time>
      </trkpt>
      <trkpt lat="49.03784" lon="7.69595">
        <ele>262</ele>
        <time>2011-03-07T17:06:15Z</time>
      </trkpt>
      <trkpt lat="49.0378" lon="7.69582">
        <ele>262</ele>
        <time>2011-03-07T17:06:22Z</time>
      </trkpt>
      <trkpt lat="49.03774" lon="7.69569">
        <ele>262</ele>
        <time>2011-03-07T17:06:29Z</time>
      </trkpt>
      <trkpt lat="49.0377" lon="7.69554">
        <ele>262</ele>
        <time>2011-03-07T17:06:36Z</time>
      </trkpt>
      <trkpt lat="49.03765" lon="7.6954">
        <ele>262</ele>
        <time>2011-03-07T17:06:43Z</time>
      </trkpt>
      <trkpt lat="49.03761" lon="7.69527">
        <ele>262</ele>
        <time>2011-03-07T17:06:51Z</time>
      </trkpt>
      <trkpt lat="49.03757" lon="7.69514">
        <ele>262</ele>
        <time>2011-03-07T17:06:58Z</time>
      </trkpt>
      <trkpt lat="49.03752" lon="7.69501">
        <ele>262</ele>
        <time>2011-03-07T17:07:05Z</time>
      </trkpt>
      <trkpt lat="49.03747" lon="7.69487">
        <ele>262</ele>
        <time>2011-03-07T17:07:12Z</time>
      </trkpt>
      <trkpt lat="49.03741" lon="7.69474">
        <ele>262</ele>
        <time>2011-03-07T17:07:18Z</time>
      </trkpt>
      <trkpt lat="49.03737" lon="7.69462">
        <ele>262</ele>
        <time>2011-03-07T17:07:26Z</time>
      </trkpt>
      <trkpt lat="49.03733" lon="7.69449">
        <ele>262</ele>
        <time>2011-03-07T17:07:33Z</time>
      </trkpt>
      <trkpt lat="49.0373" lon="7.69436">
        <ele>262</ele>
        <time>2011-03-07T17:07:40Z</time>
      </trkpt>
      <trkpt lat="49.03727" lon="7.69421">
        <ele>262</ele>
        <time>2011-03-07T17:07:47Z</time>
      </trkpt>
      <trkpt lat="49.03725" lon="7.69407">
        <ele>255</ele>
        <time>2011-03-07T17:07:55Z</time>
      </trkpt>
      <trkpt lat="49.03725" lon="7.69393">
        <ele>255</ele>
        <time>2011-03-07T17:08:02Z</time>
      </trkpt>
      <trkpt lat="49.03721" lon="7.69376">
        <ele>255</ele>
        <time>2011-03-07T17:08:09Z</time>
      </trkpt>
      <trkpt lat="49.0372" lon="7.6936">
        <ele>255</ele>
        <time>2011-03-07T17:08:16Z</time>
      </trkpt>
      <trkpt lat="49.03719" lon="7.69345">
        <ele>255</ele>
        <time>2011-03-07T17:08:24Z</time>
      </trkpt>
      <trkpt lat="49.03719" lon="7.6933">
        <ele>255</ele>
        <time>2011-03-07T17:08:31Z</time>
      </trkpt>
      <trkpt lat="49.03716" lon="7.69315">
        <ele>255</ele>
        <time>2011-03-07T17:08:39Z</time>
      </trkpt>
      <trkpt lat="49.03713" lon="7.69301">
        <ele>255</ele>
        <time>2011-03-07T17:08:46Z</time>
      </trkpt>
      <trkpt lat="49.03709" lon="7.69288">
        <ele>255</ele>
        <time>2011-03-07T17:08:53Z</time>
      </trkpt>
      <trkpt lat="49.03706" lon="7.69274">
        <ele>248</ele>
        <time>2011-03-07T17:09:00Z</time>
      </trkpt>
      <trkpt lat="49.03702" lon="7.69262">
        <ele>248</ele>
        <time>2011-03-07T17:09:13Z</time>
      </trkpt>
      <trkpt lat="49.03695" lon="7.6925">
        <ele>242</ele>
        <time>2011-03-07T17:09:24Z</time>
      </trkpt>
      <trkpt lat="49.0369" lon="7.69236">
        <ele>242</ele>
        <time>2011-03-07T17:09:30Z</time>
      </trkpt>
      <trkpt lat="49.03687" lon="7.69222">
        <ele>242</ele>
        <time>2011-03-07T17:09:38Z</time>
      </trkpt>
      <trkpt lat="49.03681" lon="7.69209">
        <ele>242</ele>
        <time>2011-03-07T17:09:45Z</time>
      </trkpt>
      <trkpt lat="49.03676" lon="7.69198">
        <ele>242</ele>
        <time>2011-03-07T17:09:51Z</time>
      </trkpt>
      <trkpt lat="49.0367" lon="7.69184">
        <ele>247</ele>
        <time>2011-03-07T17:09:59Z</time>
      </trkpt>
      <trkpt lat="49.03663" lon="7.69174">
        <ele>247</ele>
        <time>2011-03-07T17:10:07Z</time>
      </trkpt>
      <trkpt lat="49.03657" lon="7.69161">
        <ele>238</ele>
        <time>2011-03-07T17:10:15Z</time>
      </trkpt>
      <trkpt lat="49.0365" lon="7.69152">
        <ele>238</ele>
        <time>2011-03-07T17:10:21Z</time>
      </trkpt>
      <trkpt lat="49.03641" lon="7.69144">
        <ele>238</ele>
        <time>2011-03-07T17:10:28Z</time>
      </trkpt>
      <trkpt lat="49.03635" lon="7.69134">
        <ele>238</ele>
        <time>2011-03-07T17:10:35Z</time>
      </trkpt>
      <trkpt lat="49.03627" lon="7.69127">
        <ele>238</ele>
        <time>2011-03-07T17:10:44Z</time>
      </trkpt>
      <trkpt lat="49.03618" lon="7.69122">
        <ele>238</ele>
        <time>2011-03-07T17:10:52Z</time>
      </trkpt>
      <trkpt lat="49.0361" lon="7.69115">
        <ele>238</ele>
        <time>2011-03-07T17:11:00Z</time>
      </trkpt>
      <trkpt lat="49.03604" lon="7.69103">
        <ele>238</ele>
        <time>2011-03-07T17:11:08Z</time>
      </trkpt>
      <trkpt lat="49.03598" lon="7.69093">
        <ele>238</ele>
        <time>2011-03-07T17:11:16Z</time>
      </trkpt>
      <trkpt lat="49.03589" lon="7.69093">
        <ele>238</ele>
        <time>2011-03-07T17:11:22Z</time>
      </trkpt>
      <trkpt lat="49.03579" lon="7.69085">
        <ele>238</ele>
        <time>2011-03-07T17:11:28Z</time>
      </trkpt>
      <trkpt lat="49.03569" lon="7.69087">
        <ele>238</ele>
        <time>2011-03-07T17:11:55Z</time>
      </trkpt>
      <trkpt lat="49.03559" lon="7.6909">
        <ele>238</ele>
        <time>2011-03-07T17:12:03Z</time>
      </trkpt>
      <trkpt lat="49.03549" lon="7.69089">
        <ele>238</ele>
        <time>2011-03-07T17:12:12Z</time>
      </trkpt>
      <trkpt lat="49.03539" lon="7.69086">
        <ele>238</ele>
        <time>2011-03-07T17:12:20Z</time>
      </trkpt>
      <trkpt lat="49.03529" lon="7.6909">
        <ele>238</ele>
        <time>2011-03-07T17:12:27Z</time>
      </trkpt>
      <trkpt lat="49.03519" lon="7.69089">
        <ele>238</ele>
        <time>2011-03-07T17:12:35Z</time>
      </trkpt>
      <trkpt lat="49.0351" lon="7.69089">
        <ele>238</ele>
        <time>2011-03-07T17:12:43Z</time>
      </trkpt>
      <trkpt lat="49.03501" lon="7.69094">
        <ele>238</ele>
        <time>2011-03-07T17:12:50Z</time>
      </trkpt>
      <trkpt lat="49.03493" lon="7.69103">
        <ele>238</ele>
        <time>2011-03-07T17:12:59Z</time>
      </trkpt>
      <trkpt lat="49.0349" lon="7.69116">
        <ele>238</ele>
        <time>2011-03-07T17:13:11Z</time>
      </trkpt>
      <trkpt lat="49.03492" lon="7.6913">
        <ele>238</ele>
        <time>2011-03-07T17:13:24Z</time>
      </trkpt>
      <trkpt lat="49.03493" lon="7.69145">
        <ele>238</ele>
        <time>2011-03-07T17:13:32Z</time>
      </trkpt>
      <trkpt lat="49.0349" lon="7.69158">
        <ele>238</ele>
        <time>2011-03-07T17:13:38Z</time>
      </trkpt>
      <trkpt lat="49.03488" lon="7.69173">
        <ele>238</ele>
        <time>2011-03-07T17:13:45Z</time>
      </trkpt>
      <trkpt lat="49.03485" lon="7.69186">
        <ele>238</ele>
        <time>2011-03-07T17:13:54Z</time>
      </trkpt>
      <trkpt lat="49.03487" lon="7.69202">
        <ele>238</ele>
        <time>2011-03-07T17:14:02Z</time>
      </trkpt>
      <trkpt lat="49.03488" lon="7.69218">
        <ele>238</ele>
        <time>2011-03-07T17:14:10Z</time>
      </trkpt>
      <trkpt lat="49.03485" lon="7.69233">
        <ele>238</ele>
        <time>2011-03-07T17:14:17Z</time>
      </trkpt>
      <trkpt lat="49.03484" lon="7.69248">
        <ele>238</ele>
        <time>2011-03-07T17:14:24Z</time>
      </trkpt>
      <trkpt lat="49.03482" lon="7.69262">
        <ele>238</ele>
        <time>2011-03-07T17:14:31Z</time>
      </trkpt>
      <trkpt lat="49.03481" lon="7.69278">
        <ele>238</ele>
        <time>2011-03-07T17:14:38Z</time>
      </trkpt>
      <trkpt lat="49.03478" lon="7.69292">
        <ele>238</ele>
        <time>2011-03-07T17:14:45Z</time>
      </trkpt>
      <trkpt lat="49.03478" lon="7.69307">
        <ele>238</ele>
        <time>2011-03-07T17:14:53Z</time>
      </trkpt>
      <trkpt lat="49.03476" lon="7.69322">
        <ele>231</ele>
        <time>2011-03-07T17:15:28Z</time>
      </trkpt>
      <trkpt lat="49.03475" lon="7.69336">
        <ele>231</ele>
        <time>2011-03-07T17:15:34Z</time>
      </trkpt>
      <trkpt lat="49.03478" lon="7.6935">
        <ele>231</ele>
        <time>2011-03-07T17:15:40Z</time>
      </trkpt>
      <trkpt lat="49.0348" lon="7.69364">
        <ele>236</ele>
        <time>2011-03-07T17:15:47Z</time>
      </trkpt>
      <trkpt lat="49.0348" lon="7.69379">
        <ele>236</ele>
        <time>2011-03-07T17:15:56Z</time>
      </trkpt>
      <trkpt lat="49.03478" lon="7.69395">
        <ele>230</ele>
        <time>2011-03-07T17:16:03Z</time>
      </trkpt>
      <trkpt lat="49.03477" lon="7.69409">
        <ele>230</ele>
        <time>2011-03-07T17:16:11Z</time>
      </trkpt>
      <trkpt lat="49.03478" lon="7.69424">
        <ele>230</ele>
        <time>2011-03-07T17:16:18Z</time>
      </trkpt>
      <trkpt lat="49.03477" lon="7.69439">
        <ele>230</ele>
        <time>2011-03-07T17:16:26Z</time>
      </trkpt>
      <trkpt lat="49.03477" lon="7.69454">
        <ele>236</ele>
        <time>2011-03-07T17:16:34Z</time>
      </trkpt>
      <trkpt lat="49.03472" lon="7.69467">
        <ele>236</ele>
        <time>2011-03-07T17:16:41Z</time>
      </trkpt>
      <trkpt lat="49.03469" lon="7.69481">
        <ele>236</ele>
        <time>2011-03-07T17:16:47Z</time>
      </trkpt>
      <trkpt lat="49.03465" lon="7.69493">
        <ele>236</ele>
        <time>2011-03-07T17:16:54Z</time>
      </trkpt>
      <trkpt lat="49.03461" lon="7.69507">
        <ele>236</ele>
        <time>2011-03-07T17:17:01Z</time>
      </trkpt>
      <trkpt lat="49.03455" lon="7.69518">
        <ele>236</ele>
        <time>2011-03-07T17:17:09Z</time>
      </trkpt>
      <trkpt lat="49.03449" lon="7.69532">
        <ele>236</ele>
        <time>2011-03-07T17:17:15Z</time>
      </trkpt>
      <trkpt lat="49.03446" lon="7.69545">
        <ele>228</ele>
        <time>2011-03-07T17:17:21Z</time>
      </trkpt>
      <trkpt lat="49.03443" lon="7.69559">
        <ele>228</ele>
        <time>2011-03-07T17:17:28Z</time>
      </trkpt>
      <trkpt lat="49.0344" lon="7.69573">
        <ele>228</ele>
        <time>2011-03-07T17:17:36Z</time>
      </trkpt>
      <trkpt lat="49.03442" lon="7.69589">
        <ele>235</ele>
        <time>2011-03-07T17:17:44Z</time>
      </trkpt>
      <trkpt lat="49.0344" lon="7.69604">
        <ele>235</ele>
        <time>2011-03-07T17:17:52Z</time>
      </trkpt>
      <trkpt lat="49.03442" lon="7.69619">
        <ele>229</ele>
        <time>2011-03-07T17:18:01Z</time>
      </trkpt>
      <trkpt lat="49.03438" lon="7.69633">
        <ele>229</ele>
        <time>2011-03-07T17:18:08Z</time>
      </trkpt>
      <trkpt lat="49.03437" lon="7.6965">
        <ele>229</ele>
        <time>2011-03-07T17:18:16Z</time>
      </trkpt>
      <trkpt lat="49.03438" lon="7.69665">
        <ele>229</ele>
        <time>2011-03-07T17:18:24Z</time>
      </trkpt>
      <trkpt lat="49.03432" lon="7.69677">
        <ele>229</ele>
        <time>2011-03-07T17:18:30Z</time>
      </trkpt>
      <trkpt lat="49.03428" lon="7.69692">
        <ele>229</ele>
        <time>2011-03-07T17:18:44Z</time>
      </trkpt>
      <trkpt lat="49.03426" lon="7.69705">
        <ele>229</ele>
        <time>2011-03-07T17:18:51Z</time>
      </trkpt>
      <trkpt lat="49.03425" lon="7.69721">
        <ele>229</ele>
        <time>2011-03-07T17:18:59Z</time>
      </trkpt>
      <trkpt lat="49.03425" lon="7.69736">
        <ele>229</ele>
        <time>2011-03-07T17:19:07Z</time>
      </trkpt>
      <trkpt lat="49.0342" lon="7.69748">
        <ele>229</ele>
        <time>2011-03-07T17:19:13Z</time>
      </trkpt>
      <trkpt lat="49.03422" lon="7.69764">
        <ele>229</ele>
        <time>2011-03-07T17:19:21Z</time>
      </trkpt>
      <trkpt lat="49.03423" lon="7.69778">
        <ele>229</ele>
        <time>2011-03-07T17:19:29Z</time>
      </trkpt>
      <trkpt lat="49.03423" lon="7.69792">
        <ele>229</ele>
        <time>2011-03-07T17:19:37Z</time>
      </trkpt>
      <trkpt lat="49.03416" lon="7.69802">
        <ele>229</ele>
        <time>2011-03-07T17:20:14Z</time>
      </trkpt>
      <trkpt lat="49.03421" lon="7.69816">
        <ele>235</ele>
        <time>2011-03-07T17:20:42Z</time>
      </trkpt>
      <trkpt lat="49.03415" lon="7.69827">
        <ele>235</ele>
        <time>2011-03-07T17:20:48Z</time>
      </trkpt>
      <trkpt lat="49.0341" lon="7.6984">
        <ele>230</ele>
        <time>2011-03-07T17:20:55Z</time>
      </trkpt>
      <trkpt lat="49.03406" lon="7.69854">
        <ele>230</ele>
        <time>2011-03-07T17:21:01Z</time>
      </trkpt>
      <trkpt lat="49.03403" lon="7.69868">
        <ele>230</ele>
        <time>2011-03-07T17:21:09Z</time>
      </trkpt>
      <trkpt lat="49.03405" lon="7.69882">
        <ele>236</ele>
        <time>2011-03-07T17:21:18Z</time>
      </trkpt>
      <trkpt lat="49.03403" lon="7.69898">
        <ele>236</ele>
        <time>2011-03-07T17:21:26Z</time>
      </trkpt>
      <trkpt lat="49.03397" lon="7.69911">
        <ele>229</ele>
        <time>2011-03-07T17:21:33Z</time>
      </trkpt>
      <trkpt lat="49.03392" lon="7.69924">
        <ele>229</ele>
        <time>2011-03-07T17:21:41Z</time>
      </trkpt>
      <trkpt lat="49.03386" lon="7.69936">
        <ele>229</ele>
        <time>2011-03-07T17:21:48Z</time>
      </trkpt>
      <trkpt lat="49.03382" lon="7.69949">
        <ele>229</ele>
        <time>2011-03-07T17:21:56Z</time>
      </trkpt>
      <trkpt lat="49.0338" lon="7.69964">
        <ele>223</ele>
        <time>2011-03-07T17:22:12Z</time>
      </trkpt>
      <trkpt lat="49.03371" lon="7.6997">
        <ele>223</ele>
        <time>2011-03-07T17:22:17Z</time>
      </trkpt>
      <trkpt lat="49.03364" lon="7.6998">
        <ele>223</ele>
        <time>2011-03-07T17:22:29Z</time>
      </trkpt>
      <trkpt lat="49.03363" lon="7.69995">
        <ele>223</ele>
        <time>2011-03-07T17:22:35Z</time>
      </trkpt>
      <trkpt lat="49.03359" lon="7.70009">
        <ele>232</ele>
        <time>2011-03-07T17:22:42Z</time>
      </trkpt>
      <trkpt lat="49.0336" lon="7.70023">
        <ele>242</ele>
        <time>2011-03-07T17:22:51Z</time>
      </trkpt>
      <trkpt lat="49.0336" lon="7.70039">
        <ele>242</ele>
        <time>2011-03-07T17:23:02Z</time>
      </trkpt>
      <trkpt lat="49.03355" lon="7.70051">
        <ele>235</ele>
        <time>2011-03-07T17:23:10Z</time>
      </trkpt>
      <trkpt lat="49.03354" lon="7.70066">
        <ele>235</ele>
        <time>2011-03-07T17:23:19Z</time>
      </trkpt>
      <trkpt lat="49.03354" lon="7.70081">
        <ele>235</ele>
        <time>2011-03-07T17:23:27Z</time>
      </trkpt>
      <trkpt lat="49.0335" lon="7.70094">
        <ele>235</ele>
        <time>2011-03-07T17:23:34Z</time>
      </trkpt>
      <trkpt lat="49.03347" lon="7.70109">
        <ele>235</ele>
        <time>2011-03-07T17:23:42Z</time>
      </trkpt>
      <trkpt lat="49.03342" lon="7.70121">
        <ele>235</ele>
        <time>2011-03-07T17:23:52Z</time>
      </trkpt>
      <trkpt lat="49.0334" lon="7.7014">
        <ele>235</ele>
        <time>2011-03-07T17:24:02Z</time>
      </trkpt>
      <trkpt lat="49.03337" lon="7.70154">
        <ele>230</ele>
        <time>2011-03-07T17:24:07Z</time>
      </trkpt>
      <trkpt lat="49.03337" lon="7.70168">
        <ele>237</ele>
        <time>2011-03-07T17:24:17Z</time>
      </trkpt>
      <trkpt lat="49.03344" lon="7.70181">
        <ele>237</ele>
        <time>2011-03-07T17:24:24Z</time>
      </trkpt>
      <trkpt lat="49.03347" lon="7.70196">
        <ele>237</ele>
        <time>2011-03-07T17:24:32Z</time>
      </trkpt>
      <trkpt lat="49.03354" lon="7.70209">
        <ele>248</ele>
        <time>2011-03-07T17:24:38Z</time>
      </trkpt>
      <trkpt lat="49.03354" lon="7.70224">
        <ele>248</ele>
        <time>2011-03-07T17:24:45Z</time>
      </trkpt>
      <trkpt lat="49.03353" lon="7.70238">
        <ele>236</ele>
        <time>2011-03-07T17:24:55Z</time>
      </trkpt>
      <trkpt lat="49.03348" lon="7.70251">
        <ele>228</ele>
        <time>2011-03-07T17:25:01Z</time>
      </trkpt>
      <trkpt lat="49.03348" lon="7.70267">
        <ele>228</ele>
        <time>2011-03-07T17:25:11Z</time>
      </trkpt>
      <trkpt lat="49.0335" lon="7.70281">
        <ele>228</ele>
        <time>2011-03-07T17:25:19Z</time>
      </trkpt>
      <trkpt lat="49.03357" lon="7.7029">
        <ele>228</ele>
        <time>2011-03-07T17:25:35Z</time>
      </trkpt>
      <trkpt lat="49.03356" lon="7.70305">
        <ele>228</ele>
        <time>2011-03-07T17:25:44Z</time>
      </trkpt>
      <trkpt lat="49.0336" lon="7.70318">
        <ele>228</ele>
        <time>2011-03-07T17:25:52Z</time>
      </trkpt>
      <trkpt lat="49.03361" lon="7.70333">
        <ele>238</ele>
        <time>2011-03-07T17:25:58Z</time>
      </trkpt>
      <trkpt lat="49.03363" lon="7.70348">
        <ele>238</ele>
        <time>2011-03-07T17:26:06Z</time>
      </trkpt>
      <trkpt lat="49.03356" lon="7.70362">
        <ele>238</ele>
        <time>2011-03-07T17:26:12Z</time>
      </trkpt>
      <trkpt lat="49.03354" lon="7.70376">
        <ele>238</ele>
        <time>2011-03-07T17:26:21Z</time>
      </trkpt>
      <trkpt lat="49.03356" lon="7.70391">
        <ele>238</ele>
        <time>2011-03-07T17:26:27Z</time>
      </trkpt>
      <trkpt lat="49.0335" lon="7.70402">
        <ele>238</ele>
        <time>2011-03-07T17:26:34Z</time>
      </trkpt>
      <trkpt lat="49.03345" lon="7.70415">
        <ele>238</ele>
        <time>2011-03-07T17:26:41Z</time>
      </trkpt>
      <trkpt lat="49.03338" lon="7.70427">
        <ele>226</ele>
        <time>2011-03-07T17:26:48Z</time>
      </trkpt>
      <trkpt lat="49.03334" lon="7.7044">
        <ele>233</ele>
        <time>2011-03-07T17:26:53Z</time>
      </trkpt>
      <trkpt lat="49.03325" lon="7.70446">
        <ele>233</ele>
        <time>2011-03-07T17:26:59Z</time>
      </trkpt>
      <trkpt lat="49.03317" lon="7.70454">
        <ele>225</ele>
        <time>2011-03-07T17:27:07Z</time>
      </trkpt>
      <trkpt lat="49.0331" lon="7.70464">
        <ele>216</ele>
        <time>2011-03-07T17:27:15Z</time>
      </trkpt>
      <trkpt lat="49.03304" lon="7.70476">
        <ele>216</ele>
        <time>2011-03-07T17:27:24Z</time>
      </trkpt>
      <trkpt lat="49.03298" lon="7.70487">
        <ele>225</ele>
        <time>2011-03-07T17:27:30Z</time>
      </trkpt>
      <trkpt lat="49.03295" lon="7.70501">
        <ele>231</ele>
        <time>2011-03-07T17:27:39Z</time>
      </trkpt>
      <trkpt lat="49.03292" lon="7.70516">
        <ele>231</ele>
        <time>2011-03-07T17:27:48Z</time>
      </trkpt>
      <trkpt lat="49.03287" lon="7.70527">
        <ele>231</ele>
        <time>2011-03-07T17:27:52Z</time>
      </trkpt>
      <trkpt lat="49.03283" lon="7.7054">
        <ele>231</ele>
        <time>2011-03-07T17:28:00Z</time>
      </trkpt>
      <trkpt lat="49.03277" lon="7.70551">
        <ele>237</ele>
        <time>2011-03-07T17:28:07Z</time>
      </trkpt>
      <trkpt lat="49.03275" lon="7.70565">
        <ele>237</ele>
        <time>2011-03-07T17:28:17Z</time>
      </trkpt>
      <trkpt lat="49.03269" lon="7.70576">
        <ele>237</ele>
        <time>2011-03-07T17:28:24Z</time>
      </trkpt>
      <trkpt lat="49.03262" lon="7.70584">
        <ele>237</ele>
        <time>2011-03-07T17:28:29Z</time>
      </trkpt>
      <trkpt lat="49.03255" lon="7.70594">
        <ele>231</ele>
        <time>2011-03-07T17:28:34Z</time>
      </trkpt>
      <trkpt lat="49.0325" lon="7.70605">
        <ele>231</ele>
        <time>2011-03-07T17:28:43Z</time>
      </trkpt>
      <trkpt lat="49.03246" lon="7.70618">
        <ele>231</ele>
        <time>2011-03-07T17:28:50Z</time>
      </trkpt>
      <trkpt lat="49.03243" lon="7.70634">
        <ele>242</ele>
        <time>2011-03-07T17:29:01Z</time>
      </trkpt>
      <trkpt lat="49.03238" lon="7.70646">
        <ele>242</ele>
        <time>2011-03-07T17:29:10Z</time>
      </trkpt>
      <trkpt lat="49.03231" lon="7.70656">
        <ele>237</ele>
        <time>2011-03-07T17:29:17Z</time>
      </trkpt>
      <trkpt lat="49.03231" lon="7.7067">
        <ele>237</ele>
        <time>2011-03-07T17:29:37Z</time>
      </trkpt>
      <trkpt lat="49.03234" lon="7.70684">
        <ele>237</ele>
        <time>2011-03-07T17:29:51Z</time>
      </trkpt>
      <trkpt lat="49.03234" lon="7.70698">
        <ele>230</ele>
        <time>2011-03-07T17:30:02Z</time>
      </trkpt>
      <trkpt lat="49.03238" lon="7.70711">
        <ele>230</ele>
        <time>2011-03-07T17:30:23Z</time>
      </trkpt>
      <trkpt lat="49.03244" lon="7.70725">
        <ele>225</ele>
        <time>2011-03-07T17:30:30Z</time>
      </trkpt>
      <trkpt lat="49.03248" lon="7.70739">
        <ele>225</ele>
        <time>2011-03-07T17:30:38Z</time>
      </trkpt>
      <trkpt lat="49.03254" lon="7.70753">
        <ele>225</ele>
        <time>2011-03-07T17:30:45Z</time>
      </trkpt>
      <trkpt lat="49.03258" lon="7.70766">
        <ele>225</ele>
        <time>2011-03-07T17:30:53Z</time>
      </trkpt>
      <trkpt lat="49.03266" lon="7.70775">
        <ele>225</ele>
        <time>2011-03-07T17:31:00Z</time>
      </trkpt>
      <trkpt lat="49.03271" lon="7.70787">
        <ele>225</ele>
        <time>2011-03-07T17:31:09Z</time>
      </trkpt>
      <trkpt lat="49.03273" lon="7.70802">
        <ele>225</ele>
        <time>2011-03-07T17:31:17Z</time>
      </trkpt>
      <trkpt lat="49.0327" lon="7.70817">
        <ele>225</ele>
        <time>2011-03-07T17:31:27Z</time>
      </trkpt>
      <trkpt lat="49.03266" lon="7.7083">
        <ele>225</ele>
        <time>2011-03-07T17:31:33Z</time>
      </trkpt>
      <trkpt lat="49.03269" lon="7.70843">
        <ele>232</ele>
        <time>2011-03-07T17:31:41Z</time>
      </trkpt>
      <trkpt lat="49.03262" lon="7.70853">
        <ele>232</ele>
        <time>2011-03-07T17:31:46Z</time>
      </trkpt>
      <trkpt lat="49.0326" lon="7.70867">
        <ele>237</ele>
        <time>2011-03-07T17:31:55Z</time>
      </trkpt>
      <trkpt lat="49.03254" lon="7.70881">
        <ele>237</ele>
        <time>2011-03-07T17:32:03Z</time>
      </trkpt>
      <trkpt lat="49.03251" lon="7.70896">
        <ele>245</ele>
        <time>2011-03-07T17:32:13Z</time>
      </trkpt>
      <trkpt lat="49.03246" lon="7.7091">
        <ele>238</ele>
        <time>2011-03-07T17:32:21Z</time>
      </trkpt>
      <trkpt lat="49.0324" lon="7.70923">
        <ele>238</ele>
        <time>2011-03-07T17:32:27Z</time>
      </trkpt>
      <trkpt lat="49.03236" lon="7.70935">
        <ele>226</ele>
        <time>2011-03-07T17:32:34Z</time>
      </trkpt>
      <trkpt lat="49.0323" lon="7.70946">
        <ele>226</ele>
        <time>2011-03-07T17:32:41Z</time>
      </trkpt>
      <trkpt lat="49.03225" lon="7.70959">
        <ele>226</ele>
        <time>2011-03-07T17:32:50Z</time>
      </trkpt>
      <trkpt lat="49.0322" lon="7.70971">
        <ele>226</ele>
        <time>2011-03-07T17:32:59Z</time>
      </trkpt>
      <trkpt lat="49.03214" lon="7.70984">
        <ele>226</ele>
        <time>2011-03-07T17:33:07Z</time>
      </trkpt>
      <trkpt lat="49.03209" lon="7.70997">
        <ele>234</ele>
        <time>2011-03-07T17:33:16Z</time>
      </trkpt>
      <trkpt lat="49.03203" lon="7.71007">
        <ele>234</ele>
        <time>2011-03-07T17:33:23Z</time>
      </trkpt>
      <trkpt lat="49.03194" lon="7.71014">
        <ele>234</ele>
        <time>2011-03-07T17:33:34Z</time>
      </trkpt>
      <trkpt lat="49.03186" lon="7.71022">
        <ele>229</ele>
        <time>2011-03-07T17:33:43Z</time>
      </trkpt>
    </trkseg>
  </trk>
</gpx>